Time;durP1;ratioP1;P1;durP2;ratioP2;P2;SDS_P1;SDS_P2;PMS_P1;PMS_P2;Temp;Humidity;BMP_temperature;BMP_pressure;BME280_temperature;BME280_humidity;BME280_pressure;Samples;Min_cycle;Max_cycle;Signal;HPM_P1;HPM_P2
2023/02/01 00:03:08;;;;;;;;;;;;;;;;;;;;;
2023/02/01 00:16:40;;;;;;;17.48;5.60;;;4.40;1.00;;;;;;6241082;22;20212;-86
2023/02/01 00:20:01;;;;;;;23.42;5.18;;;4.30;1.00;;;;;;6215662;22;20209;-87
2023/02/01 00:36:03;;;;;;;13.98;3.55;;;4.20;1.00;;;;;;6150454;23;20213;-86
2023/02/01 00:45:39;;;;;;;19.85;5.82;;;4.20;1.00;;;;;;6146272;23;20214;-87
2023/02/01 00:48:35;;;;;;;17.15;4.05;;;4.20;1.00;;;;;;6156023;23;20678;-84
2023/02/01 00:51:34;;;;;;;;;;;;;;;;;;;;;
2023/02/01 00:54:24;;;;;;;19.48;4.30;;;4.20;1.00;;;;;;6191586;23;49387;-85
2023/02/01 00:57:22;;;;;;;16.42;3.10;;;4.20;1.00;;;;;;6175219;23;20210;-85
2023/02/01 01:00:15;;;;;;;14.25;2.97;;;4.30;1.00;;;;;;6183687;23;20222;-86
2023/02/01 01:12:04;;;;;;;15.10;4.90;;;4.50;1.00;;;;;;6098795;23;20234;-85
2023/02/01 01:14:57;;;;;;;16.60;3.17;;;4.40;1.00;;;;;;6109844;23;21034;-85
2023/02/01 01:17:55;;;;;;;19.35;3.97;;;4.40;1.00;;;;;;6166158;23;20222;-84
2023/02/01 01:20:25;;;;;;;22.13;3.88;;;4.40;1.00;;;;;;6207216;23;20222;-85
2023/02/01 01:22:55;;;;;;;14.20;4.32;;;4.40;1.00;;;;;;6188780;23;20678;-85
2023/02/01 01:25:45;;;;;;;16.95;3.78;;;4.40;1.00;;;;;;6196056;23;20220;-85
2023/02/01 01:28:44;;;;;;;14.77;3.67;;;4.30;1.00;;;;;;6204883;23;20202;-87
2023/02/01 01:31:17;;;;;;;13.00;3.20;;;4.30;1.00;;;;;;6204394;23;20189;-87
2023/02/01 01:34:13;;;;;;;14.80;4.10;;;4.30;1.00;;;;;;6215738;23;20206;-87
2023/02/01 01:36:45;;;;;;;15.85;3.25;;;4.40;1.00;;;;;;6196124;23;20205;-84
2023/02/01 01:39:15;;;;;;;14.90;3.10;;;4.40;1.00;;;;;;6204557;22;20200;-84
2023/02/01 01:41:43;;;;;;;16.45;3.63;;;4.40;1.00;;;;;;6224837;22;20236;-85
2023/02/01 01:44:54;;;;;;;13.30;3.35;;;4.40;1.00;;;;;;6190824;22;20197;-84
2023/02/01 01:47:23;;;;;;;16.48;3.90;;;4.40;1.00;;;;;;6186705;23;20205;-85
2023/02/01 01:50:02;;;;;;;18.55;3.78;;;4.40;1.00;;;;;;6234849;22;20189;-84
2023/02/01 01:52:38;;;;;;;14.48;3.05;;;4.40;1.00;;;;;;6233329;22;20213;-86
2023/02/01 01:55:23;;;;;;;18.75;5.18;;;4.40;1.00;;;;;;6221132;22;20205;-84
2023/02/01 01:58:01;;;;;;;16.05;3.53;;;4.50;1.00;;;;;;6235865;22;20214;-88
2023/02/01 02:03:44;;;;;;;16.10;3.70;;;4.50;1.00;;;;;;6193254;22;20681;-86
2023/02/01 02:06:45;;;;;;;17.13;3.95;;;4.50;1.00;;;;;;6234151;22;20193;-87
2023/02/01 02:09:16;;;;;;;16.23;4.22;;;4.50;1.00;;;;;;6219449;22;20224;-84
2023/02/01 02:11:53;;;;;;;15.68;3.47;;;4.50;1.00;;;;;;6237849;22;20227;-86
2023/02/01 02:14:23;;;;;;;17.42;3.80;;;4.50;1.00;;;;;;6195560;22;20217;-84
2023/02/01 02:17:12;;;;;;;12.88;3.83;;;4.60;1.00;;;;;;6237088;22;20197;-89
2023/02/01 02:20:34;;;;;;;18.35;5.20;;;4.60;1.00;;;;;;6235269;22;20299;-85
2023/02/01 02:23:44;;;;;;;13.63;3.70;;;4.60;1.00;;;;;;6217915;22;20213;-86
2023/02/01 02:26:40;;;;;;;17.90;3.80;;;4.60;1.00;;;;;;6239097;22;20272;-88
2023/02/01 02:29:44;;;;;;;14.52;3.47;;;4.60;1.00;;;;;;6224926;22;20213;-88
2023/02/01 02:32:54;;;;;;;16.35;5.40;;;4.60;1.00;;;;;;6222101;22;20197;-89
2023/02/01 02:35:37;;;;;;;17.70;4.05;;;4.70;1.00;;;;;;6223032;22;20224;-84
2023/02/01 02:38:25;;;;;;;14.20;3.80;;;4.70;1.00;;;;;;6219111;22;20217;-86
2023/02/01 02:41:04;;;;;;;15.48;4.80;;;4.70;1.00;;;;;;6246106;22;20223;-85
2023/02/01 02:49:24;;;;;;;19.10;3.60;;;4.70;1.00;;;;;;6260948;22;20209;-88
2023/02/01 02:54:54;;;;;;;15.90;3.83;;;4.70;1.00;;;;;;6252336;22;20351;-84
2023/02/01 03:06:15;;;;;;;16.75;3.90;;;4.70;1.00;;;;;;6233381;22;20232;-84
2023/02/01 03:08:56;;;;;;;16.42;4.30;;;4.70;1.00;;;;;;6262440;22;20256;-87
2023/02/01 03:12:55;;;;;;;14.65;3.80;;;4.70;1.00;;;;;;6250199;22;20216;-85
2023/02/01 03:14:25;;;;;;;23.90;4.15;;;4.70;1.00;;;;;;6246407;22;20264;-87
2023/02/01 03:17:01;;;;;;;19.40;4.80;;;4.80;1.00;;;;;;6265790;22;20991;-87
2023/02/01 03:19:43;;;;;;;21.55;4.95;;;4.80;1.00;;;;;;6261985;22;20221;-87
2023/02/01 03:22:16;;;;;;;15.48;3.85;;;4.80;1.00;;;;;;6263654;22;20264;-87
2023/02/01 03:24:56;;;;;;;14.95;3.60;;;4.80;1.00;;;;;;6213478;22;20812;-87
2023/02/01 03:27:32;;;;;;;17.63;4.20;;;4.80;1.00;;;;;;6234388;22;20222;-85
2023/02/01 03:30:17;;;;;;;19.02;3.95;;;4.90;1.00;;;;;;6265986;22;20267;-87
2023/02/01 03:33:00;;;;;;;21.05;4.20;;;4.80;1.00;;;;;;6266898;22;20216;-88
2023/02/01 03:35:53;;;;;;;14.70;3.97;;;4.80;1.00;;;;;;6266779;22;20189;-87
2023/02/01 03:38:24;;;;;;;17.90;3.45;;;4.80;1.00;;;;;;6237874;22;20728;-89
2023/02/01 03:41:03;;;;;;;17.17;3.80;;;4.80;1.00;;;;;;6264801;22;20188;-88
2023/02/01 03:46:21;;;;;;;16.90;4.55;;;4.80;1.00;;;;;;6209279;23;20210;-85
2023/02/01 03:48:58;;;;;;;15.35;3.60;;;4.80;1.00;;;;;;6216782;22;20217;-87
2023/02/01 03:51:34;;;;;;;20.58;4.75;;;4.90;1.00;;;;;;6225395;22;20210;-87
2023/02/01 03:54:04;;;;;;;16.40;4.38;;;4.90;1.00;;;;;;6225102;22;20209;-85
2023/02/01 03:57:22;;;;;;;23.95;5.65;;;4.90;1.00;;;;;;6207796;22;20200;-90
2023/02/01 04:00:39;;;;;;;18.30;3.85;;;4.90;1.00;;;;;;6224871;22;20209;-88
2023/02/01 04:03:15;;;;;;;22.58;5.00;;;4.90;1.00;;;;;;6222260;22;20255;-87
2023/02/01 04:05:42;;;;;;;16.83;4.30;;;4.90;1.00;;;;;;6224330;22;20993;-84
2023/02/01 04:08:32;;;;;;;13.65;4.60;;;4.90;1.00;;;;;;6195334;22;20204;-89
2023/02/01 04:11:14;;;;;;;17.92;4.10;;;4.90;1.00;;;;;;6224707;22;20295;-85
2023/02/01 04:13:44;;;;;;;15.35;3.65;;;5.00;1.00;;;;;;6235462;22;20222;-84
2023/02/01 04:16:16;;;;;;;16.15;3.97;;;5.00;1.00;;;;;;6232625;22;20194;-84
2023/02/01 04:18:43;;;;;;;16.50;4.80;;;5.10;1.00;;;;;;6220376;22;20216;-86
2023/02/01 04:21:14;;;;;;;18.38;4.40;;;5.10;1.00;;;;;;6193661;22;20206;-85
2023/02/01 04:23:52;;;;;;;23.00;6.03;;;5.10;1.00;;;;;;6234329;22;20770;-85
2023/02/01 04:26:22;;;;;;;18.00;4.95;;;5.20;1.00;;;;;;6219387;22;20797;-85
2023/02/01 04:29:02;;;;;;;18.40;4.80;;;5.20;1.00;;;;;;6234036;22;20206;-85
2023/02/01 04:31:46;;;;;;;18.35;4.10;;;5.30;1.00;;;;;;6210611;22;21100;-85
2023/02/01 04:34:26;;;;;;;13.77;3.67;;;5.30;1.00;;;;;;6160637;23;20225;-85
2023/02/01 04:36:55;;;;;;;20.58;3.75;;;5.30;1.00;;;;;;6144043;23;20215;-84
2023/02/01 04:39:25;;;;;;;16.48;3.25;;;5.40;1.00;;;;;;6147838;23;20604;-86
2023/02/01 04:41:56;;;;;;;18.75;4.15;;;5.40;1.00;;;;;;6142574;23;21080;-86
2023/02/01 04:44:36;;;;;;;19.60;4.82;;;5.40;1.00;;;;;;6183409;22;20231;-83
2023/02/01 04:47:05;;;;;;;14.75;4.63;;;5.50;1.00;;;;;;6197731;22;20201;-85
2023/02/01 04:49:34;;;;;;;17.98;4.43;;;5.50;1.00;;;;;;6214446;22;20213;-85
2023/02/01 04:52:15;;;;;;;17.48;5.03;;;5.50;1.00;;;;;;6215496;22;20269;-84
2023/02/01 04:54:43;;;;;;;19.67;5.50;;;5.60;1.00;;;;;;6201773;23;20226;-86
2023/02/01 04:57:33;;;;;;;14.40;3.83;;;5.60;1.00;;;;;;6206183;22;20213;-84
2023/02/01 05:00:04;;;;;;;13.88;3.58;;;5.60;1.00;;;;;;6184551;22;20221;-84
2023/02/01 06:18:24;;;;;;;14.40;4.60;;;5.80;1.00;;;;;;6224729;22;20210;-88
2023/02/01 06:21:25;;;;;;;15.80;3.95;;;5.90;1.00;;;;;;6255849;22;20635;-85
2023/02/01 06:24:01;;;;;;;17.15;5.03;;;5.90;1.00;;;;;;6246708;22;20208;-85
2023/02/01 06:26:42;;;;;;;19.25;5.15;;;5.70;1.00;;;;;;6213808;22;20224;-84
2023/02/01 06:32:44;;;;;;;20.58;6.82;;;5.50;1.00;;;;;;6190676;22;20271;-85
2023/02/01 06:35:34;;;;;;;15.10;4.07;;;5.40;1.00;;;;;;6227498;22;20206;-86
2023/02/01 06:41:22;;;;;;;18.15;5.03;;;5.20;1.00;;;;;;6113526;23;20223;-86
2023/02/01 06:43:59;;;;;;;17.45;4.90;;;5.20;1.00;;;;;;6257054;22;20204;-86
2023/02/01 06:46:37;;;;;;;19.98;5.22;;;5.20;1.00;;;;;;6245892;22;21049;-86
2023/02/01 06:52:25;;;;;;;20.42;4.82;;;5.10;1.00;;;;;;6214158;22;20208;-89
2023/02/01 06:57:57;;;;;;;18.67;5.07;;;5.00;1.00;;;;;;6236514;22;20237;-91
2023/02/01 13:47:49;;;;;;;10.30;2.75;;;6.60;1.00;;;;;;6223531;22;20208;-86
2023/02/01 13:50:27;;;;;;;11.40;2.65;;;6.70;1.00;;;;;;6247526;22;20231;-88
2023/02/01 15:44:26;;;;;;;7.50;2.10;;;4.70;1.00;;;;;;6246715;22;20209;-85
2023/02/01 15:47:07;;;;;;;9.48;2.63;;;4.60;1.00;;;;;;6217595;22;20214;-88
2023/02/01 15:49:53;;;;;;;9.20;2.25;;;4.40;1.00;;;;;;6226476;22;20225;-86
2023/02/01 15:52:39;;;;;;;9.38;1.80;;;4.20;1.00;;;;;;6226102;22;20208;-89
2023/02/01 15:56:14;;;;;;;7.60;1.70;;;4.10;1.00;;;;;;6227199;22;20200;-87
2023/02/01 15:58:59;;;;;;;7.55;1.95;;;4.00;1.00;;;;;;6167627;22;20203;-89
2023/02/01 16:05:18;;;;;;;7.35;1.60;;;3.90;1.00;;;;;;6193734;22;20206;-89
2023/02/01 16:08:31;;;;;;;8.00;1.70;;;3.90;1.00;;;;;;6249928;22;20590;-89
2023/02/01 17:19:56;;;;;;;9.07;2.00;;;3.40;1.00;;;;;;6214036;22;20291;-91
2023/02/01 17:22:39;;;;;;;7.50;1.60;;;3.40;1.00;;;;;;6193682;22;21393;-90
2023/02/01 17:43:46;;;;;;;10.48;2.42;;;3.60;1.00;;;;;;6272130;22;20208;-91
2023/02/01 17:46:25;;;;;;;10.00;2.60;;;3.60;1.00;;;;;;6220815;22;20204;-91
2023/02/01 17:51:52;;;;;;;10.63;2.08;;;3.70;1.00;;;;;;6252548;22;20188;-91
2023/02/01 17:54:30;;;;;;;8.57;2.53;;;3.70;1.00;;;;;;6216307;22;20235;-91
2023/02/01 17:57:11;;;;;;;9.35;2.00;;;3.70;1.00;;;;;;6234847;22;20212;-90
2023/02/01 17:59:50;;;;;;;11.20;2.10;;;3.80;1.00;;;;;;6244833;22;21013;-87
2023/02/01 18:02:28;;;;;;;11.98;2.35;;;3.80;1.00;;;;;;6203201;22;20213;-90
2023/02/01 18:04:56;;;;;;;8.18;1.85;;;3.90;1.00;;;;;;6235693;22;20205;-86
2023/02/01 18:07:30;;;;;;;13.68;3.25;;;3.90;1.00;;;;;;6218332;22;20236;-88
2023/02/01 18:09:57;;;;;;;8.50;1.77;;;3.90;1.00;;;;;;6233142;22;20928;-87
2023/02/01 18:12:32;;;;;;;10.23;2.15;;;3.90;1.00;;;;;;6210616;22;20662;-89
2023/02/01 18:15:08;;;;;;;10.15;2.00;;;4.00;1.00;;;;;;6227325;22;20243;-91
2023/02/01 18:17:36;;;;;;;14.40;2.30;;;3.90;1.00;;;;;;6249903;22;20220;-91
2023/02/01 18:20:15;;;;;;;10.75;2.03;;;4.00;1.00;;;;;;6222100;22;20215;-90
2023/02/01 18:22:50;;;;;;;13.40;2.50;;;4.00;1.00;;;;;;6256411;22;20264;-90
2023/02/01 18:25:38;;;;;;;11.43;1.80;;;4.00;1.00;;;;;;6220573;22;20267;-87
2023/02/01 18:28:12;;;;;;;11.05;2.10;;;4.00;1.00;;;;;;6217962;22;20955;-88
2023/02/01 18:30:47;;;;;;;8.93;1.92;;;4.00;1.00;;;;;;6264861;22;21149;-89
2023/02/01 18:33:35;;;;;;;15.27;2.38;;;4.10;1.00;;;;;;6212719;22;20208;-88
2023/02/01 18:36:14;;;;;;;9.32;2.35;;;4.10;1.00;;;;;;6234654;22;20213;-89
2023/02/01 18:38:55;;;;;;;12.00;2.40;;;4.20;1.00;;;;;;6232661;22;20228;-88
2023/02/01 18:41:28;;;;;;;10.55;2.45;;;4.10;1.00;;;;;;6209375;22;20201;-89
2023/02/01 18:44:00;;;;;;;9.43;2.20;;;4.20;1.00;;;;;;6242616;22;20235;-88
2023/02/01 18:47:00;;;;;;;14.30;2.30;;;4.20;1.00;;;;;;6223120;22;20238;-86
2023/02/01 18:49:30;;;;;;;13.77;2.30;;;4.20;1.00;;;;;;6178304;22;20198;-87
2023/02/01 18:51:58;;;;;;;14.45;2.90;;;4.20;1.00;;;;;;6222427;22;20211;-87
2023/02/01 18:54:40;;;;;;;17.83;2.75;;;4.30;1.00;;;;;;6197228;22;20213;-88
2023/02/01 18:57:11;;;;;;;14.00;2.63;;;4.30;1.00;;;;;;6185288;22;20221;-87
2023/02/01 18:59:38;;;;;;;10.93;2.60;;;4.30;1.00;;;;;;6198294;22;20209;-88
2023/02/01 19:04:57;;;;;;;14.70;2.80;;;4.30;1.00;;;;;;6202227;22;20217;-89
2023/02/01 19:07:35;;;;;;;12.40;3.15;;;4.30;1.00;;;;;;6184556;22;21088;-87
2023/02/01 19:10:15;;;;;;;12.85;2.92;;;4.30;1.00;;;;;;6202452;22;20472;-88
2023/02/01 19:12:50;;;;;;;9.57;2.35;;;4.30;1.00;;;;;;6215956;22;20217;-85
2023/02/01 19:15:27;;;;;;;9.52;2.65;;;4.30;1.00;;;;;;6187770;22;20927;-90
2023/02/01 19:17:57;;;;;;;10.10;3.10;;;4.40;1.00;;;;;;6203883;22;20220;-87
2023/02/01 19:20:30;;;;;;;10.93;2.50;;;4.40;1.00;;;;;;6191600;22;20726;-89
2023/02/01 19:23:11;;;;;;;13.10;2.75;;;4.40;1.00;;;;;;6204153;22;20265;-87
2023/02/01 19:25:38;;;;;;;13.00;2.80;;;4.40;1.00;;;;;;6209811;22;20388;-87
2023/02/01 19:28:09;;;;;;;12.48;3.08;;;4.40;1.00;;;;;;6210083;22;20213;-87
2023/02/01 19:30:36;;;;;;;13.35;2.75;;;4.40;1.00;;;;;;6189441;22;20232;-88
2023/02/01 19:33:28;;;;;;;12.20;2.75;;;4.40;1.00;;;;;;6171216;22;20220;-87
2023/02/01 19:35:58;;;;;;;11.82;2.67;;;4.40;1.00;;;;;;6216233;22;20742;-89
2023/02/01 19:38:31;;;;;;;13.43;3.30;;;4.40;1.00;;;;;;6178429;22;20210;-89
2023/02/01 19:40:58;;;;;;;17.45;3.30;;;4.50;1.00;;;;;;6198084;22;20265;-88
2023/02/01 19:43:29;;;;;;;12.25;2.65;;;4.50;1.00;;;;;;6210379;22;20202;-88
2023/02/01 19:45:56;;;;;;;13.77;2.80;;;4.50;1.00;;;;;;6195730;22;20218;-88
2023/02/01 19:48:34;;;;;;;11.80;2.42;;;4.40;1.00;;;;;;6192246;22;20217;-88
2023/02/01 19:54:00;;;;;;;14.63;3.47;;;4.50;1.00;;;;;;6197318;22;20212;-87
2023/02/01 20:05:31;;;;;;;14.15;2.50;;;4.50;1.00;;;;;;6158474;22;20213;-93
2023/02/01 20:08:11;;;;;;;11.27;2.40;;;4.50;1.00;;;;;;6180577;23;20224;-92
2023/02/01 20:13:54;;;;;;;14.18;2.85;;;4.50;1.00;;;;;;6204973;22;20309;-91
2023/02/01 20:16:28;;;;;;;16.75;3.60;;;4.60;1.00;;;;;;6170153;22;20203;-88
2023/02/01 20:18:59;;;;;;;13.27;2.58;;;4.60;1.00;;;;;;6183577;23;20194;-88
2023/02/01 20:21:35;;;;;;;21.05;6.40;;;4.60;1.00;;;;;;6166297;22;20208;-91
2023/02/01 20:24:10;;;;;;;13.13;3.10;;;4.60;1.00;;;;;;6198336;22;20237;-91
2023/02/01 20:26:39;;;;;;;13.55;3.03;;;4.60;1.00;;;;;;6195700;22;20218;-88
2023/02/01 20:29:08;;;;;;;12.45;3.15;;;4.60;1.00;;;;;;6171414;23;20217;-89
2023/02/01 20:53:14;;;;;;;13.15;3.10;;;4.50;1.00;;;;;;6241938;22;20201;-92
2023/02/01 21:01:32;;;;;;;12.60;3.10;;;4.60;1.00;;;;;;6210658;22;20264;-85
2023/02/01 21:04:20;;;;;;;12.95;2.40;;;4.60;1.00;;;;;;6211588;22;20205;-88
2023/02/01 21:47:07;;;;;;;13.18;2.75;;;4.50;1.00;;;;;;6213343;22;20213;-89
2023/02/01 22:06:07;;;;;;;13.55;2.92;;;4.30;1.00;;;;;;6236071;22;20205;-91
2023/02/01 22:11:15;;;;;;;13.15;2.65;;;4.20;1.00;;;;;;6212819;22;20629;-86
2023/02/01 22:25:15;;;;;;;12.82;2.97;;;4.40;1.00;;;;;;6183151;22;20225;-92
2023/02/01 22:27:52;;;;;;;16.10;3.35;;;4.50;1.00;;;;;;6236436;22;20233;-91
2023/02/01 22:33:26;;;;;;;11.05;2.78;;;4.50;1.00;;;;;;6234946;22;20204;-87
2023/02/01 22:35:57;;;;;;;11.07;2.35;;;4.60;1.00;;;;;;6223056;22;20289;-87
2023/02/01 22:38:36;;;;;;;14.02;2.55;;;4.60;1.00;;;;;;6199135;22;20279;-91
2023/02/01 23:05:00;;;;;;;13.35;2.80;;;4.80;1.00;;;;;;6202576;22;20268;-87
2023/02/01 23:10:11;;;;;;;9.52;2.65;;;4.80;1.00;;;;;;6197057;22;20205;-92
2023/02/01 23:46:30;;;;;;;;;;;;;;;;;;;;;
2023/02/01 23:49:19;;;;;;;18.60;4.40;;;4.60;1.00;;;;;;6212840;22;50580;-92
2023/02/01 23:52:15;;;;;;;13.32;3.80;;;4.50;1.00;;;;;;6176479;23;20198;-92
2023/02/01 23:54:56;;;;;;;14.40;3.20;;;4.50;1.00;;;;;;6210946;22;20217;-91
2023/02/01 23:57:46;;;;;;;;;;;;;;;;;;;;;
